Tuesday, September 23, 2014, 12:17 AM EDT

KOFP, Hanover County Municipal

Location: Ashland, VA, United States Lat: 37.7
Local Time: 12:17 AM EDT ( 4:17 GMT) Lon: -77.433
Time Zone: US/Eastern Elev: 203 ft

Show me the last for .
Show Decoded

2014-09-22 23:54 METAR KOFP 230354Z AUTO 36004KT 10SM CLR 15/08 A3022 RMK AO2 SLP233 T01500083 =
2014-09-22 22:54 METAR KOFP 230254Z AUTO 00000KT 10SM CLR 16/08 A3021 RMK AO2 SLP228 T01610083
                 51028 =
2014-09-22 21:54 METAR KOFP 230154Z AUTO VRB03KT 10SM CLR 16/09 A3018 RMK AO2 SLP219 T01560094 =
2014-09-22 20:54 METAR KOFP 230054Z AUTO 00000KT 10SM CLR 17/09 A3016 RMK AO2 SLP212 T01670094 =
2014-09-22 19:54 METAR KOFP 222354Z AUTO 00000KT 10SM CLR 16/11 A3013 RMK AO2 SLP201 T01610106
                 10250 20161 53024 =
2014-09-22 18:54 METAR KOFP 222254Z AUTO 00000KT 10SM CLR 19/11 A3010 RMK AO2 SLP190 T01890106 =
2014-09-22 17:54 METAR KOFP 222154Z AUTO 02003KT 10SM CLR 23/09 A3007 RMK AO2 SLP182 T02330094 =
2014-09-22 16:54 METAR KOFP 222054Z AUTO 31009KT 10SM CLR 24/08 A3006 RMK AO2 SLP176 T02440083
                 53004 =
2014-09-22 15:54 METAR KOFP 221954Z AUTO 00000KT 10SM CLR 24/09 A3004 RMK AO2 SLP171 T02440089 =
2014-09-22 14:54 METAR KOFP 221854Z AUTO 31007KT 10SM CLR 23/08 A3003 RMK AO2 SLP168 T02330083 =
2014-09-22 13:54 METAR KOFP 221754Z AUTO 30011G16KT 10SM CLR 24/09 A3004 RMK AO2 SLP171 T02390094
                 10244 20172 50001 =
2014-09-22 12:54 METAR KOFP 221654Z AUTO 31012G17KT 10SM CLR 24/10 A3005 RMK AO2 SLP174 T02390100
                 =
2014-09-22 11:54 METAR KOFP 221554Z AUTO 30007G14KT 10SM FEW050 22/09 A3005 RMK AO2 SLP174
                 T02220094 =
2014-09-22 10:54 METAR KOFP 221454Z AUTO VRB04KT 10SM CLR 23/09 A3004 RMK AO2 SLP171 T02280094
                 51021 =
2014-09-22 09:54 METAR KOFP 221354Z AUTO 31011KT 10SM CLR 22/09 A3003 RMK AO2 SLP167 T02170094 =
2014-09-22 08:54 METAR KOFP 221254Z AUTO 30008KT 10SM CLR 20/10 A3001 RMK AO2 SLP159 T02000100 =
2014-09-22 06:54 METAR KOFP 221054Z AUTO 31005KT 10SM CLR 18/08 A2995 RMK AO2 SLP141 T01780083 =
2014-09-22 05:54 METAR KOFP 220954Z AUTO 31009KT 10SM CLR 19/08 A2992 RMK AO2 SLP129 T01890078 =
2014-09-22 04:54 METAR KOFP 220854Z AUTO 28006KT 10SM CLR 19/08 A2989 RMK AO2 SLP118 T01890083
                 51020 =
2014-09-22 03:54 METAR KOFP 220754Z AUTO 29007KT 10SM FEW050 22/09 A2986 RMK AO2 SLP110 T02170089
                 =
2014-09-22 02:54 METAR KOFP 220654Z AUTO 29008KT 10SM BKN055 OVC100 23/14 A2985 RMK AO2 SLP104
                 T02280139 =
2014-09-22 01:54 METAR KOFP 220554Z AUTO 29009KT 10SM OVC100 23/17 A2982 RMK AO2 SLP096 T02330172
                 10272 20233 53021 =
2014-09-22 00:54 METAR KOFP 220454Z AUTO 27006KT 10SM OVC110 24/18 A2980 RMK AO2 SLP089 T02390178
                 403060150 =

Support USWX by starting your Amazon purchase here.